East Albany, Vermont
Current Conditions -  °F | °C
As of 3:35 PM on Saturday 25 Oct 2014 (Local Time) from KEFK Reporting Station
Overcast Overcast  
Wind Chill: 56°   Ceiling: 4900
Heat Index: 56°   Visibility: 10mi
Dew Point: 42°   Wind: 9mph
Humidity: 61%   Direction: 250°WSW
Pressure: 29.57"   Gusts: NA
Location:  44.8143°N, 72.284°W
Report Text: KEFK 251935Z AUTO 25008KT 10SM SCT043 BKN049 OVC080 13/06 A2957 RMK AO2 T01310057
Loading
Personal Weather Stations






























Interactive Weather Map
Tropical Storm Tracking
New forecast layout! Learn more

10-Day Weather Forecast

Advertisements
Track Severe Weather on mobile